ETHF

Fritzlar Airport

Fritzlar, Germany
METAR ETHF 152020Z 02004KT 9999 FEW060 SCT300 21/08 Q1015 BLU+
Observed Flight Rules
Jul-15 @ 20:20 UTC (49 minutes ago) Visual Flight Rules
Wind Visibility Clouds
20° at 4 knots 10,000+ meters
  • Few at 6,000' AGL
  • Scattered at 30,000' AGL
Temperatures Readings
Current 21°C / 70°F
Dewpoint 8°C / 46°F
Humidity 43%
Altimeter 29.97" Hg
Pressure 1015 hPa
Elevation 181
METAR ETHF 152020Z 02004KT 9999 FEW060 SCT300 21/08 Q1015 BLU+
Observed Flight Rules
Jul-15 @ 20:20 UTC
(49 minutes ago)
VFR
Wind Visibility
20° at 4 knots 10,000+ meters
Clouds
  • Few at 6,000' AGL
  • Scattered at 30,000' AGL
Temperature Dewpoint
21°C / 70°F 8°C / 46°F
Humidity Altimeter Pressure
43% 29.97" Hg 1015 hPa